Time;durP1;ratioP1;P1;durP2;ratioP2;P2;SDS_P1;SDS_P2;PMS_P1;PMS_P2;Temp;Humidity;BMP_temperature;BMP_pressure;BME280_temperature;BME280_humidity;BME280_pressure;Samples;Min_cycle;Max_cycle;Signal;HPM_P1;HPM_P2
2023/10/19 00:00:44;;;;;;;9.02;7.95;;;10.20;99.90;;;;;;5002040;28;20075;-79
2023/10/19 00:03:11;;;;;;;8.75;7.95;;;10.20;99.90;;;;;;5001394;28;20026;-79
2023/10/19 00:05:38;;;;;;;10.43;9.07;;;10.20;99.90;;;;;;5001817;28;20037;-79
2023/10/19 00:08:36;;;;;;;12.20;9.32;;;10.30;99.90;;;;;;5002333;28;20037;-78
2023/10/19 00:11:10;;;;;;;9.90;9.00;;;10.30;99.90;;;;;;4999527;28;20045;-79
2023/10/19 00:13:40;;;;;;;8.82;7.90;;;10.30;99.90;;;;;;4987486;28;20052;-79
2023/10/19 00:16:17;;;;;;;11.25;10.15;;;10.30;99.90;;;;;;5018693;28;20029;-79
2023/10/19 00:18:44;;;;;;;10.23;9.25;;;10.40;99.90;;;;;;5017964;28;20044;-79
2023/10/19 00:21:19;;;;;;;10.52;9.52;;;10.40;99.90;;;;;;5000834;28;23084;-79
2023/10/19 00:23:51;;;;;;;12.98;11.63;;;10.40;99.90;;;;;;4986842;28;20037;-80
2023/10/19 00:26:24;;;;;;;12.35;11.15;;;10.50;99.90;;;;;;5003374;28;20148;-79
2023/10/19 00:28:58;;;;;;;10.18;9.25;;;10.50;99.90;;;;;;5002307;28;20033;-79
2023/10/19 00:31:27;;;;;;;7.85;7.05;;;10.50;99.90;;;;;;5016685;28;20030;-79
2023/10/19 00:33:54;;;;;;;9.25;8.35;;;10.60;99.90;;;;;;5015524;28;20071;-79
2023/10/19 00:36:22;;;;;;;12.40;11.20;;;10.60;99.90;;;;;;5016619;28;20033;-79
2023/10/19 00:41:29;;;;;;;10.00;9.00;;;10.60;99.90;;;;;;5015032;28;20041;-79
2023/10/19 00:44:12;;;;;;;11.70;9.10;;;10.70;99.90;;;;;;5018891;28;20064;-80
2023/10/19 00:49:12;;;;;;;11.95;10.82;;;10.70;99.90;;;;;;4999237;28;20033;-79
2023/10/19 00:52:10;;;;;;;12.85;11.65;;;10.70;99.90;;;;;;5017716;28;20042;-80
2023/10/19 00:54:51;;;;;;;11.02;10.00;;;10.80;99.90;;;;;;4988177;28;20052;-79
2023/10/19 00:57:21;;;;;;;11.00;9.93;;;10.80;99.90;;;;;;5001600;28;20507;-80
2023/10/19 00:59:49;;;;;;;12.38;11.05;;;10.80;99.90;;;;;;5001254;28;20033;-79
2023/10/19 01:05:00;;;;;;;10.98;9.95;;;10.90;99.90;;;;;;5020822;28;20349;-79
2023/10/19 01:07:29;;;;;;;11.00;9.90;;;10.90;99.90;;;;;;5013946;28;21619;-79
2023/10/19 01:09:59;;;;;;;14.77;13.23;;;11.00;99.90;;;;;;4985010;28;20048;-79
2023/10/19 01:15:12;;;;;;;14.20;12.82;;;11.10;99.90;;;;;;5016038;28;20037;-78
2023/10/19 01:17:40;;;;;;;11.20;10.13;;;11.10;99.90;;;;;;5016248;28;20038;-79
2023/10/19 01:20:19;;;;;;;13.98;12.57;;;11.20;99.90;;;;;;5017639;28;20033;-79
2023/10/19 01:34:06;;;;;;;12.05;10.38;;;11.30;99.90;;;;;;5002036;28;20575;-79
2023/10/19 01:36:42;;;;;;;13.38;12.07;;;11.30;99.90;;;;;;5018636;28;20049;-80
2023/10/19 01:39:11;;;;;;;18.45;16.42;;;11.30;99.90;;;;;;5015456;28;20040;-81
2023/10/19 01:41:41;;;;;;;14.70;13.20;;;11.30;99.90;;;;;;4999422;28;20504;-81
2023/10/19 01:44:07;;;;;;;14.57;12.40;;;11.30;99.90;;;;;;4999531;28;20492;-79
2023/10/19 01:46:35;;;;;;;15.00;12.93;;;11.40;99.90;;;;;;5016252;28;20044;-80
2023/10/19 01:49:03;;;;;;;12.90;11.60;;;11.40;99.90;;;;;;4999169;28;20037;-80
2023/10/19 01:51:38;;;;;;;13.02;11.05;;;11.40;99.90;;;;;;5014569;28;20049;-80
2023/10/19 01:54:07;;;;;;;17.60;13.52;;;11.50;99.90;;;;;;5034225;28;20033;-81
2023/10/19 01:56:35;;;;;;;13.40;12.00;;;11.50;99.90;;;;;;5001657;28;20033;-80
2023/10/19 01:59:07;;;;;;;12.90;11.68;;;11.50;99.90;;;;;;5001150;28;20041;-80
2023/10/19 02:01:36;;;;;;;13.27;11.98;;;11.50;99.90;;;;;;4994949;28;20038;-80
2023/10/19 02:04:09;;;;;;;14.20;12.40;;;11.50;99.90;;;;;;4986904;28;20044;-80
2023/10/19 02:06:37;;;;;;;12.43;10.80;;;11.50;99.90;;;;;;4995611;28;20128;-79
2023/10/19 02:11:50;;;;;;;17.52;15.13;;;11.60;99.90;;;;;;5016847;28;20056;-80
2023/10/19 02:14:21;;;;;;;14.15;12.50;;;11.60;99.90;;;;;;5000094;28;20037;-80
2023/10/19 02:16:56;;;;;;;12.68;11.32;;;11.60;99.90;;;;;;4999601;28;20485;-80
2023/10/19 02:19:25;;;;;;;14.18;11.82;;;11.70;99.90;;;;;;4993666;28;20049;-80
2023/10/19 02:21:57;;;;;;;14.00;12.43;;;11.70;99.90;;;;;;4999510;28;20558;-80
2023/10/19 02:24:25;;;;;;;20.75;17.05;;;11.70;99.90;;;;;;5002041;28;20410;-80
2023/10/19 02:26:55;;;;;;;17.30;15.25;;;11.70;99.90;;;;;;5000896;28;20396;-80
2023/10/19 02:29:22;;;;;;;16.80;14.95;;;11.80;99.90;;;;;;5012659;28;20484;-80
2023/10/19 02:31:49;;;;;;;15.30;12.90;;;11.90;99.90;;;;;;4999919;28;20640;-80
2023/10/19 02:34:16;;;;;;;16.92;12.73;;;11.90;99.90;;;;;;5018726;28;20025;-80
2023/10/19 02:36:44;;;;;;;11.73;10.50;;;12.00;99.90;;;;;;4985437;28;20500;-80
2023/10/19 02:39:13;;;;;;;12.60;11.10;;;12.00;99.90;;;;;;5015839;28;20041;-80
2023/10/19 02:41:43;;;;;;;12.00;10.60;;;12.00;99.90;;;;;;5014221;28;20060;-80
2023/10/19 02:46:47;;;;;;;12.27;9.63;;;12.10;99.90;;;;;;5014470;28;20033;-82
2023/10/19 02:49:18;;;;;;;10.50;9.40;;;12.20;99.90;;;;;;4994853;28;20052;-80
2023/10/19 02:51:45;;;;;;;10.88;9.48;;;12.20;99.90;;;;;;4998583;28;20033;-78
2023/10/19 02:54:19;;;;;;;11.60;10.38;;;12.20;99.90;;;;;;4999798;28;20048;-80
2023/10/19 02:56:51;;;;;;;12.75;10.20;;;12.20;99.90;;;;;;4982178;28;20045;-79
2023/10/19 02:59:22;;;;;;;11.27;9.90;;;12.20;99.90;;;;;;5017040;28;20055;-79
2023/10/19 03:01:54;;;;;;;13.65;10.35;;;12.20;99.90;;;;;;4987030;28;20392;-79
2023/10/19 03:04:20;;;;;;;11.77;10.27;;;12.30;99.90;;;;;;4996072;28;20037;-79
2023/10/19 03:06:47;;;;;;;12.77;10.40;;;12.30;99.90;;;;;;5002672;28;20449;-78
2023/10/19 03:09:36;;;;;;;12.88;10.75;;;12.30;99.90;;;;;;5018329;28;20022;-79
2023/10/19 03:12:04;;;;;;;11.98;9.85;;;12.30;99.90;;;;;;5002362;28;20042;-79
2023/10/19 03:14:32;;;;;;;12.30;11.00;;;12.40;99.90;;;;;;4998551;28;20037;-78
2023/10/19 03:16:59;;;;;;;13.25;10.70;;;12.30;99.90;;;;;;5011911;28;20493;-79
2023/10/19 03:19:26;;;;;;;12.90;11.57;;;12.40;99.90;;;;;;4998310;28;20044;-79
2023/10/19 03:21:55;;;;;;;13.32;11.57;;;12.30;99.90;;;;;;5013652;28;20479;-79
2023/10/19 03:27:23;;;;;;;11.77;9.10;;;12.40;99.90;;;;;;5010645;28;20413;-79
2023/10/19 03:29:55;;;;;;;11.60;9.88;;;12.40;99.90;;;;;;5015811;28;20400;-79
2023/10/19 03:32:26;;;;;;;11.32;10.18;;;12.40;99.90;;;;;;4996678;28;20064;-79
2023/10/19 03:34:55;;;;;;;11.02;9.85;;;12.40;99.90;;;;;;5018639;28;20036;-79
2023/10/19 03:37:24;;;;;;;11.43;9.70;;;12.40;99.90;;;;;;5018401;28;20068;-80
2023/10/19 03:39:55;;;;;;;14.40;12.07;;;12.50;99.90;;;;;;5017994;28;20044;-80
2023/10/19 03:42:26;;;;;;;18.15;14.20;;;12.40;99.90;;;;;;5011121;28;20046;-80
2023/10/19 03:44:57;;;;;;;17.20;13.35;;;12.40;99.90;;;;;;5017420;28;22909;-80
2023/10/19 03:47:31;;;;;;;18.10;12.57;;;12.40;99.90;;;;;;4998088;28;20511;-80
2023/10/19 03:50:03;;;;;;;12.48;10.77;;;12.50;99.90;;;;;;5013284;28;20033;-80
2023/10/19 03:52:31;;;;;;;10.40;8.65;;;12.50;99.90;;;;;;5016375;28;20042;-80
2023/10/19 03:54:57;;;;;;;11.05;9.30;;;12.50;99.90;;;;;;5016340;28;20037;-81
2023/10/19 03:57:29;;;;;;;11.82;9.10;;;12.60;99.90;;;;;;5002782;28;20040;-80
2023/10/19 03:59:59;;;;;;;10.77;8.55;;;12.60;99.90;;;;;;5003166;28;20033;-81
2023/10/19 04:02:28;;;;;;;8.57;7.57;;;12.60;99.90;;;;;;5017277;28;20041;-80
2023/10/19 04:04:57;;;;;;;10.20;7.63;;;12.70;99.90;;;;;;5022221;28;20025;-81
2023/10/19 04:07:25;;;;;;;8.57;7.68;;;12.70;99.90;;;;;;5019758;28;20499;-80
2023/10/19 04:10:29;;;;;;;9.32;8.05;;;12.70;99.90;;;;;;5001713;28;20033;-79
2023/10/19 04:12:46;;;;;;;10.13;7.60;;;12.70;99.90;;;;;;5004808;28;20032;-79
2023/10/19 04:15:16;;;;;;;8.32;6.93;;;12.70;99.90;;;;;;5006276;28;20037;-80
2023/10/19 04:17:48;;;;;;;10.75;8.38;;;12.70;99.90;;;;;;4985608;28;20033;-80
2023/10/19 04:22:49;;;;;;;9.77;7.35;;;12.60;99.90;;;;;;5014166;28;20296;-81
2023/10/19 04:25:25;;;;;;;8.40;6.25;;;12.60;99.90;;;;;;5002228;28;20049;-80
2023/10/19 04:27:51;;;;;;;7.45;6.30;;;12.60;99.90;;;;;;5002323;28;20357;-80
2023/10/19 04:30:22;;;;;;;6.72;5.65;;;12.70;99.90;;;;;;5019151;28;20045;-81
2023/10/19 04:32:50;;;;;;;6.15;5.35;;;12.70;99.90;;;;;;4999980;28;20041;-81
2023/10/19 04:35:23;;;;;;;7.45;5.60;;;12.70;99.90;;;;;;5016880;28;20044;-80
2023/10/19 04:37:51;;;;;;;8.00;6.40;;;12.80;99.90;;;;;;5019618;28;20061;-80
2023/10/19 04:40:22;;;;;;;9.15;6.70;;;12.80;99.90;;;;;;5020783;28;20036;-80
2023/10/19 04:42:53;;;;;;;7.97;5.85;;;12.90;99.90;;;;;;5003597;28;20033;-80
2023/10/19 04:45:20;;;;;;;6.85;5.45;;;12.90;99.90;;;;;;5020345;28;20052;-80
2023/10/19 04:47:52;;;;;;;6.97;5.63;;;12.90;99.90;;;;;;5003262;28;20037;-80
2023/10/19 04:50:19;;;;;;;7.03;6.13;;;12.90;99.90;;;;;;4999661;28;20033;-80
2023/10/19 04:52:45;;;;;;;6.65;5.80;;;12.90;99.90;;;;;;5019021;28;20516;-81
2023/10/19 04:55:11;;;;;;;6.80;5.72;;;13.00;99.90;;;;;;5003594;28;20037;-80
2023/10/19 04:57:38;;;;;;;6.72;5.80;;;13.00;99.90;;;;;;5018937;28;20029;-80
2023/10/19 05:00:05;;;;;;;9.68;7.13;;;12.90;99.90;;;;;;5002292;28;20064;-80
2023/10/19 05:02:31;;;;;;;7.93;5.80;;;13.00;99.90;;;;;;5020278;28;20389;-80
2023/10/19 05:04:57;;;;;;;8.65;5.68;;;13.00;99.90;;;;;;5001348;28;20494;-80
2023/10/19 05:07:24;;;;;;;6.57;5.30;;;12.90;99.90;;;;;;4986086;28;20041;-80
2023/10/19 05:09:50;;;;;;;7.13;5.40;;;12.80;99.90;;;;;;5019265;28;20034;-79
2023/10/19 05:12:18;;;;;;;6.72;5.22;;;12.80;99.90;;;;;;5001394;28;20029;-82
2023/10/19 05:14:45;;;;;;;8.27;5.45;;;12.70;99.90;;;;;;5014785;28;20037;-81
2023/10/19 05:17:12;;;;;;;7.00;5.97;;;12.60;99.90;;;;;;5015055;28;23122;-81
2023/10/19 05:19:39;;;;;;;10.02;6.45;;;12.50;99.90;;;;;;4982762;28;20048;-81
2023/10/19 05:22:09;;;;;;;8.73;6.90;;;12.40;99.90;;;;;;4982248;28;20045;-80
2023/10/19 05:24:36;;;;;;;8.68;7.53;;;12.30;99.90;;;;;;5015702;28;20801;-79
2023/10/19 05:27:03;;;;;;;6.75;6.05;;;12.20;99.90;;;;;;4999474;28;20037;-80
2023/10/19 05:29:33;;;;;;;9.57;6.13;;;12.10;99.90;;;;;;4998625;28;20033;-80
2023/10/19 05:32:00;;;;;;;7.10;6.00;;;12.10;99.90;;;;;;5014740;28;20068;-79
2023/10/19 05:34:26;;;;;;;7.80;6.68;;;12.00;99.90;;;;;;5019137;28;20041;-78
2023/10/19 05:36:54;;;;;;;15.20;11.10;;;12.10;99.90;;;;;;5003093;28;20053;-79
2023/10/19 05:39:20;;;;;;;15.02;11.75;;;12.00;99.90;;;;;;5001356;28;20033;-79
2023/10/19 05:41:47;;;;;;;12.02;8.75;;;12.00;99.90;;;;;;5000427;28;20041;-79
2023/10/19 05:44:13;;;;;;;11.63;8.35;;;12.10;99.90;;;;;;5016260;28;20385;-80
2023/10/19 05:46:40;;;;;;;11.98;8.55;;;12.10;99.90;;;;;;5019944;28;20383;-79
2023/10/19 05:49:07;;;;;;;9.85;8.00;;;12.20;99.90;;;;;;4983301;28;20026;-79
2023/10/19 05:51:34;;;;;;;16.17;6.85;;;12.20;99.90;;;;;;4984202;28;20036;-79
2023/10/19 05:54:03;;;;;;;9.38;7.13;;;12.20;99.90;;;;;;4982001;28;20030;-78
2023/10/19 05:56:36;;;;;;;8.85;7.28;;;12.20;99.90;;;;;;5017821;28;20029;-78
2023/10/19 05:59:02;;;;;;;9.45;7.13;;;12.30;99.90;;;;;;4998730;28;20041;-79
2023/10/19 06:01:28;;;;;;;8.30;6.97;;;12.30;99.90;;;;;;5000493;28;20044;-78
2023/10/19 06:03:56;;;;;;;7.63;6.40;;;12.30;99.90;;;;;;5001273;28;20493;-80
2023/10/19 06:06:23;;;;;;;7.60;6.47;;;12.30;99.90;;;;;;5016149;28;20052;-79
2023/10/19 06:08:53;;;;;;;9.15;6.68;;;12.40;99.90;;;;;;5001114;28;20373;-80
2023/10/19 06:11:21;;;;;;;8.80;7.43;;;12.40;99.90;;;;;;4985278;28;20041;-80
2023/10/19 06:13:47;;;;;;;11.48;6.97;;;12.50;99.90;;;;;;4986571;28;20033;-83
2023/10/19 06:16:14;;;;;;;8.77;6.88;;;12.50;99.90;;;;;;4985044;28;20037;-81
2023/10/19 06:18:43;;;;;;;10.63;7.10;;;12.60;99.90;;;;;;4999056;28;20516;-78
2023/10/19 06:21:09;;;;;;;9.75;7.40;;;12.60;99.90;;;;;;4998215;28;20436;-78
2023/10/19 06:23:36;;;;;;;9.30;6.75;;;12.60;99.90;;;;;;5018761;28;20033;-80
2023/10/19 06:26:12;;;;;;;9.75;7.00;;;12.60;99.90;;;;;;5015211;28;20042;-80
2023/10/19 06:28:42;;;;;;;9.50;7.43;;;12.70;99.90;;;;;;4998043;28;20033;-80
2023/10/19 06:31:08;;;;;;;8.98;6.68;;;12.70;99.90;;;;;;4998145;28;20060;-80
2023/10/19 06:33:35;;;;;;;16.80;13.02;;;12.70;99.90;;;;;;4995328;28;20161;-81
2023/10/19 06:36:03;;;;;;;21.75;16.50;;;12.70;99.90;;;;;;5015682;28;20056;-79
2023/10/19 06:38:31;;;;;;;18.33;15.18;;;12.80;99.90;;;;;;5017113;28;20033;-81
2023/10/19 06:40:58;;;;;;;18.15;14.10;;;12.80;99.90;;;;;;5014779;28;20037;-82
2023/10/19 06:43:28;;;;;;;20.30;16.67;;;12.80;99.90;;;;;;5002859;28;20096;-84
2023/10/19 06:45:55;;;;;;;17.08;13.98;;;12.90;99.90;;;;;;5015638;28;20029;-84
2023/10/19 06:48:22;;;;;;;15.20;11.93;;;12.90;99.90;;;;;;4999886;28;20136;-84
2023/10/19 06:50:48;;;;;;;14.18;10.82;;;12.90;99.90;;;;;;4992834;28;20593;-86
2023/10/19 06:53:15;;;;;;;11.40;9.20;;;12.90;99.90;;;;;;5017400;28;20500;-86
2023/10/19 06:55:41;;;;;;;13.18;9.00;;;12.90;99.90;;;;;;5021569;28;20026;-83
2023/10/19 06:58:09;;;;;;;10.93;9.02;;;13.00;99.90;;;;;;5005838;28;20029;-85
2023/10/19 07:00:42;;;;;;;8.73;7.25;;;13.00;99.90;;;;;;5019606;28;20033;-84
2023/10/19 07:03:08;;;;;;;9.55;7.57;;;13.00;99.90;;;;;;5013346;28;20045;-83
2023/10/19 07:05:35;;;;;;;8.45;7.32;;;13.10;99.90;;;;;;5001689;28;20037;-84
2023/10/19 07:08:03;;;;;;;9.30;7.50;;;13.10;99.90;;;;;;5000404;28;21234;-85
2023/10/19 07:10:29;;;;;;;7.97;6.93;;;13.10;99.90;;;;;;4983587;28;20037;-84
2023/10/19 07:12:57;;;;;;;9.32;6.60;;;13.20;99.90;;;;;;4999278;28;20037;-85
2023/10/19 07:15:25;;;;;;;7.95;7.05;;;13.20;99.90;;;;;;5000220;28;20045;-86
2023/10/19 07:17:53;;;;;;;6.68;5.90;;;13.30;99.90;;;;;;5014686;28;20064;-84
2023/10/19 07:20:38;;;;;;;7.63;6.57;;;13.30;99.90;;;;;;4983569;28;20029;-87
2023/10/19 07:23:26;;;;;;;7.60;5.82;;;13.40;99.90;;;;;;4994473;28;20060;-84
2023/10/19 07:25:59;;;;;;;6.50;5.40;;;13.40;99.90;;;;;;5000449;28;20037;-86
2023/10/19 07:28:26;;;;;;;7.63;6.00;;;13.50;99.90;;;;;;5002154;28;20528;-86
2023/10/19 07:30:53;;;;;;;6.55;5.45;;;13.60;99.90;;;;;;5014742;28;20037;-85
2023/10/19 07:33:20;;;;;;;9.80;5.78;;;13.60;99.90;;;;;;4985640;28;20487;-85
2023/10/19 07:35:52;;;;;;;7.40;5.60;;;13.60;99.90;;;;;;4987304;28;20029;-90
2023/10/19 07:38:21;;;;;;;7.47;5.60;;;13.70;99.90;;;;;;5004899;28;20040;-89
2023/10/19 07:40:48;;;;;;;5.90;5.25;;;13.70;99.90;;;;;;5004138;28;20333;-90
2023/10/19 07:43:14;;;;;;;6.15;4.15;;;13.80;99.90;;;;;;5006160;28;20050;-90
2023/10/19 07:45:43;;;;;;;8.73;5.53;;;13.80;99.90;;;;;;5007070;28;20033;-90
2023/10/19 07:48:12;;;;;;;8.90;5.68;;;13.80;99.90;;;;;;5004592;28;20026;-87
2023/10/19 07:50:42;;;;;;;6.82;5.05;;;13.80;99.90;;;;;;5022683;28;20033;-89
2023/10/19 07:53:09;;;;;;;7.50;5.50;;;13.80;99.90;;;;;;4992673;28;20025;-90
2023/10/19 07:55:38;;;;;;;6.70;4.45;;;13.80;99.90;;;;;;5006012;28;20034;-89
2023/10/19 07:58:06;;;;;;;4.82;4.03;;;13.90;99.90;;;;;;5005875;28;20096;-88
2023/10/19 08:00:33;;;;;;;5.88;3.58;;;13.90;99.90;;;;;;5016419;28;20045;-91
2023/10/19 08:03:04;;;;;;;6.43;3.40;;;13.90;99.90;;;;;;4989143;28;20045;-89
2023/10/19 08:05:31;;;;;;;4.90;3.60;;;14.00;99.90;;;;;;5001828;28;20063;-88
2023/10/19 08:07:58;;;;;;;5.47;3.40;;;14.10;99.90;;;;;;4989322;28;20041;-90
2023/10/19 08:10:26;;;;;;;4.95;3.35;;;14.10;99.90;;;;;;5004696;28;20033;-86
2023/10/19 08:12:52;;;;;;;3.63;2.70;;;14.20;99.90;;;;;;5003628;28;20045;-82
2023/10/19 08:15:20;;;;;;;5.63;3.17;;;14.20;99.90;;;;;;4988103;28;20037;-82
2023/10/19 08:17:50;;;;;;;5.03;2.67;;;14.20;99.90;;;;;;4987009;28;20042;-84
2023/10/19 08:20:30;;;;;;;5.90;2.78;;;14.30;99.90;;;;;;5002664;28;20044;-83
2023/10/19 08:22:58;;;;;;;5.45;2.88;;;14.30;99.90;;;;;;5001982;28;20048;-85
2023/10/19 08:25:27;;;;;;;3.22;2.05;;;14.30;99.90;;;;;;4989096;28;20025;-82
2023/10/19 08:27:57;;;;;;;3.22;1.90;;;14.40;99.90;;;;;;5019538;28;20041;-84
2023/10/19 08:30:24;;;;;;;4.28;1.95;;;14.40;99.90;;;;;;5034911;28;20045;-86
2023/10/19 08:32:51;;;;;;;3.03;1.80;;;14.50;99.90;;;;;;4987434;28;20046;-82
2023/10/19 08:35:20;;;;;;;5.78;2.80;;;14.50;99.90;;;;;;5002718;28;20040;-87
2023/10/19 08:37:48;;;;;;;5.63;2.00;;;14.60;99.90;;;;;;5015334;28;20064;-84
2023/10/19 08:40:14;;;;;;;3.60;1.48;;;14.60;99.90;;;;;;5000204;28;20100;-84
2023/10/19 08:42:42;;;;;;;5.07;1.95;;;14.70;99.90;;;;;;5030474;28;20426;-86
2023/10/19 08:45:12;;;;;;;1.83;1.35;;;14.70;99.90;;;;;;4984747;28;20045;-83
2023/10/19 08:47:56;;;;;;;4.70;2.10;;;14.80;99.90;;;;;;5001483;28;20046;-83
2023/10/19 08:50:28;;;;;;;2.78;1.20;;;14.80;99.90;;;;;;5002351;28;20037;-83
2023/10/19 08:53:01;;;;;;;7.30;2.15;;;14.90;99.90;;;;;;4999923;28;20029;-83
2023/10/19 08:55:30;;;;;;;4.38;1.77;;;14.90;99.90;;;;;;5002011;28;20033;-85
2023/10/19 08:57:59;;;;;;;5.13;1.60;;;15.00;99.90;;;;;;4990541;28;20381;-84
2023/10/19 09:00:26;;;;;;;3.90;1.58;;;15.00;99.90;;;;;;5018706;28;20044;-82
2023/10/19 09:02:54;;;;;;;6.22;1.83;;;15.00;99.90;;;;;;5004942;28;20044;-84
2023/10/19 09:05:25;;;;;;;3.83;1.50;;;15.20;99.90;;;;;;5001966;28;20032;-82
2023/10/19 09:07:55;;;;;;;4.20;1.67;;;15.20;99.90;;;;;;5010897;28;20437;-82
2023/10/19 09:10:22;;;;;;;5.10;1.60;;;15.30;99.90;;;;;;5015982;28;20045;-83
2023/10/19 09:13:01;;;;;;;6.00;1.80;;;15.50;99.90;;;;;;4991872;28;20048;-86
2023/10/19 09:15:38;;;;;;;5.32;2.40;;;15.60;99.90;;;;;;4985534;28;20044;-82
2023/10/19 09:18:20;;;;;;;4.57;1.73;;;15.60;99.90;;;;;;5017139;28;20049;-83
2023/10/19 09:23:36;;;;;;;6.20;2.30;;;15.70;99.90;;;;;;5002909;28;20033;-83
2023/10/19 09:26:03;;;;;;;6.30;2.05;;;15.70;99.90;;;;;;4999249;28;20045;-84
2023/10/19 09:28:29;;;;;;;6.45;2.22;;;15.70;99.90;;;;;;5001414;28;20052;-82
2023/10/19 09:30:56;;;;;;;5.15;2.05;;;15.70;99.90;;;;;;5002714;28;20045;-82
2023/10/19 09:33:24;;;;;;;6.95;2.38;;;15.70;99.90;;;;;;5003953;28;20041;-85
2023/10/19 09:35:56;;;;;;;5.18;2.20;;;15.80;99.90;;;;;;5020133;28;20033;-83
2023/10/19 09:38:24;;;;;;;3.67;1.77;;;15.80;99.90;;;;;;5002755;28;20041;-83
2023/10/19 09:40:54;;;;;;;4.93;2.30;;;15.90;99.90;;;;;;5002693;28;20380;-84
2023/10/19 09:43:44;;;;;;;5.25;2.28;;;15.90;99.90;;;;;;5000283;28;20033;-84
2023/10/19 09:46:12;;;;;;;6.40;2.97;;;16.00;99.90;;;;;;4985060;28;20811;-86
2023/10/19 09:48:45;;;;;;;9.75;3.33;;;16.10;99.90;;;;;;5013802;28;20041;-83
2023/10/19 09:51:32;;;;;;;9.13;2.75;;;16.30;99.90;;;;;;5017261;28;20029;-86
2023/10/19 09:54:23;;;;;;;7.70;2.58;;;16.40;99.90;;;;;;5019275;28;20428;-84
2023/10/19 09:56:58;;;;;;;7.57;3.17;;;16.50;99.90;;;;;;5002608;28;20482;-85
2023/10/19 09:59:35;;;;;;;4.00;2.58;;;16.60;99.90;;;;;;5000734;28;20412;-82
2023/10/19 10:02:11;;;;;;;5.90;3.47;;;16.60;99.90;;;;;;5017377;28;20041;-82
2023/10/19 10:04:45;;;;;;;7.97;2.97;;;16.70;99.90;;;;;;4999130;28;20050;-82
2023/10/19 10:07:11;;;;;;;6.70;2.50;;;16.80;99.90;;;;;;4994496;28;20472;-82
2023/10/19 10:09:45;;;;;;;3.05;1.75;;;17.10;99.90;;;;;;5016577;28;20033;-82
2023/10/19 10:12:29;;;;;;;5.00;1.75;;;17.30;99.90;;;;;;5004310;28;20098;-83
2023/10/19 10:15:05;;;;;;;3.78;1.38;;;17.60;99.90;;;;;;5018526;28;20507;-82
2023/10/19 10:17:42;;;;;;;3.65;1.35;;;17.90;99.90;;;;;;5014613;28;20041;-84
2023/10/19 10:20:15;;;;;;;5.53;1.40;;;18.10;99.90;;;;;;5016254;28;20036;-85
2023/10/19 10:22:41;;;;;;;3.90;1.13;;;18.30;99.90;;;;;;5016756;28;20708;-84
2023/10/19 10:25:25;;;;;;;2.58;0.82;;;18.50;99.90;;;;;;5016696;28;20037;-84
2023/10/19 10:27:51;;;;;;;6.13;0.98;;;18.70;99.90;;;;;;5016686;28;20060;-79
2023/10/19 10:30:18;;;;;;;4.93;1.20;;;18.80;99.90;;;;;;5017759;28;20034;-79
2023/10/19 10:32:54;;;;;;;6.05;2.03;;;18.90;99.90;;;;;;5002375;28;20040;-79
2023/10/19 10:35:39;;;;;;;4.25;2.25;;;19.00;99.90;;;;;;5000368;28;20036;-79
2023/10/19 10:38:09;;;;;;;5.32;1.80;;;18.80;99.90;;;;;;4996653;28;20044;-79
2023/10/19 10:40:50;;;;;;;6.88;1.90;;;18.60;99.90;;;;;;5014098;28;20044;-80
2023/10/19 10:43:17;;;;;;;7.22;2.33;;;18.50;99.90;;;;;;4998345;28;20048;-81
2023/10/19 10:45:44;;;;;;;7.25;1.80;;;18.40;99.90;;;;;;4997148;28;20037;-82
2023/10/19 10:48:15;;;;;;;4.53;1.30;;;18.30;99.90;;;;;;5013708;28;20489;-80
2023/10/19 10:50:41;;;;;;;6.00;1.40;;;18.20;99.90;;;;;;5016467;28;20038;-82
2023/10/19 10:53:12;;;;;;;4.32;1.20;;;18.20;99.90;;;;;;5016867;28;20056;-80
2023/10/19 10:55:39;;;;;;;6.65;1.17;;;18.20;99.90;;;;;;5016979;28;20401;-82
2023/10/19 10:58:05;;;;;;;11.20;1.40;;;18.20;99.90;;;;;;4982191;28;20033;-81
2023/10/19 11:00:34;;;;;;;6.30;1.17;;;18.30;99.90;;;;;;5000511;28;20392;-81
2023/10/19 11:03:07;;;;;;;5.07;1.00;;;18.30;99.90;;;;;;5000940;28;20061;-81
2023/10/19 11:05:35;;;;;;;5.05;0.90;;;18.30;99.90;;;;;;5001675;28;20477;-81
2023/10/19 11:08:09;;;;;;;6.32;1.25;;;18.30;99.90;;;;;;5013507;28;20554;-81
2023/10/19 11:10:39;;;;;;;4.75;1.08;;;18.20;99.90;;;;;;5000915;28;20045;-81
2023/10/19 11:13:07;;;;;;;5.05;1.52;;;18.20;99.90;;;;;;5016800;28;20481;-81
2023/10/19 11:15:36;;;;;;;4.47;0.82;;;18.20;99.90;;;;;;5015447;28;20590;-82
2023/10/19 11:18:04;;;;;;;6.50;1.73;;;18.10;99.90;;;;;;4997322;28;20037;-83
2023/10/19 11:20:30;;;;;;;4.15;0.90;;;18.20;99.90;;;;;;4998991;28;20037;-81
2023/10/19 11:23:00;;;;;;;5.10;1.10;;;18.20;99.90;;;;;;5009561;28;20605;-83
2023/10/19 11:25:28;;;;;;;5.57;1.33;;;18.20;99.90;;;;;;5016167;28;20447;-84
2023/10/19 11:27:59;;;;;;;5.80;1.02;;;18.30;99.90;;;;;;5015666;28;20367;-80
2023/10/19 11:30:27;;;;;;;4.80;1.10;;;18.40;99.90;;;;;;4996416;28;20384;-80
2023/10/19 11:32:58;;;;;;;5.68;1.00;;;18.50;99.90;;;;;;5016205;28;20783;-84
2023/10/19 11:35:25;;;;;;;9.13;1.52;;;18.60;99.90;;;;;;5016371;28;20028;-84
2023/10/19 11:37:54;;;;;;;7.38;1.80;;;18.80;99.90;;;;;;5015418;28;20029;-82
2023/10/19 11:40:22;;;;;;;10.10;3.38;;;18.80;99.90;;;;;;5016244;28;20040;-82
2023/10/19 11:42:49;;;;;;;8.40;2.63;;;18.80;99.90;;;;;;5000851;28;20038;-83
2023/10/19 11:45:16;;;;;;;6.97;2.13;;;18.80;99.90;;;;;;4999132;28;20041;-84
2023/10/19 11:47:46;;;;;;;5.85;2.10;;;18.80;99.90;;;;;;5013260;28;20033;-79
2023/10/19 11:50:15;;;;;;;6.85;1.75;;;18.80;99.90;;;;;;4997185;28;20041;-80
2023/10/19 11:52:42;;;;;;;7.20;2.53;;;18.80;99.90;;;;;;4978367;28;20042;-79
2023/10/19 11:55:09;;;;;;;3.88;1.17;;;18.80;99.90;;;;;;4998789;28;20037;-78
2023/10/19 11:57:35;;;;;;;7.10;1.00;;;19.30;99.90;;;;;;4999264;28;20361;-79
2023/10/19 12:00:08;;;;;;;3.53;1.20;;;20.20;99.90;;;;;;5006370;28;20033;-79
2023/10/19 12:02:38;;;;;;;3.55;0.70;;;20.70;99.90;;;;;;5018902;28;20051;-78
2023/10/19 12:05:10;;;;;;;7.75;1.33;;;20.70;99.90;;;;;;5027083;28;20052;-79
2023/10/19 12:07:38;;;;;;;4.78;1.35;;;20.60;99.90;;;;;;5017117;28;20052;-79
2023/10/19 12:10:09;;;;;;;7.90;0.90;;;20.40;99.90;;;;;;5017031;28;20041;-79
2023/10/19 12:12:36;;;;;;;8.18;1.08;;;20.60;99.90;;;;;;5032904;28;20033;-79
2023/10/19 12:15:05;;;;;;;5.00;0.80;;;20.70;99.90;;;;;;5003196;28;20048;-80
2023/10/19 12:17:32;;;;;;;5.32;1.48;;;20.70;99.90;;;;;;5020042;28;20025;-81
2023/10/19 12:19:58;;;;;;;5.05;1.40;;;20.70;99.90;;;;;;5017861;28;20698;-79
2023/10/19 12:22:31;;;;;;;3.58;0.95;;;20.60;99.90;;;;;;5002179;28;20045;-81
2023/10/19 12:24:58;;;;;;;5.78;1.38;;;20.40;99.90;;;;;;5001068;28;20052;-80
2023/10/19 12:27:24;;;;;;;5.13;1.27;;;20.40;99.90;;;;;;5000989;28;20033;-81
2023/10/19 12:29:54;;;;;;;5.05;1.67;;;20.20;99.90;;;;;;5017223;28;20030;-79
2023/10/19 12:32:22;;;;;;;5.90;1.35;;;19.90;99.90;;;;;;5001827;28;20619;-80
2023/10/19 12:34:57;;;;;;;6.47;1.10;;;19.70;99.90;;;;;;5034141;28;20045;-80
2023/10/19 12:37:27;;;;;;;3.60;1.42;;;19.50;99.90;;;;;;5019765;28;20531;-81
2023/10/19 12:39:55;;;;;;;3.97;1.40;;;19.30;99.90;;;;;;5017039;28;20036;-80
2023/10/19 12:42:23;;;;;;;5.50;0.95;;;19.10;99.90;;;;;;5020821;28;20037;-80
2023/10/19 12:44:49;;;;;;;3.40;0.90;;;19.00;99.90;;;;;;5003876;28;20034;-80
2023/10/19 12:47:17;;;;;;;6.50;1.63;;;19.00;99.90;;;;;;5002710;28;20068;-79
2023/10/19 12:49:45;;;;;;;5.53;1.30;;;18.90;99.90;;;;;;4999640;28;20044;-80
2023/10/19 12:52:12;;;;;;;6.00;1.35;;;18.80;99.90;;;;;;5003410;28;20029;-81
2023/10/19 12:54:39;;;;;;;4.65;1.02;;;18.70;99.90;;;;;;5002980;28;20053;-81
2023/10/19 12:57:09;;;;;;;5.80;1.52;;;18.60;99.90;;;;;;5000464;28;20042;-80
2023/10/19 12:59:39;;;;;;;4.18;1.13;;;18.50;99.90;;;;;;5000804;28;20026;-79
2023/10/19 13:02:08;;;;;;;4.75;1.30;;;18.30;99.90;;;;;;4998615;28;20040;-80
2023/10/19 13:04:36;;;;;;;5.45;1.33;;;18.20;99.90;;;;;;4986083;28;20042;-82
2023/10/19 13:07:02;;;;;;;4.70;0.98;;;18.20;99.90;;;;;;5018501;28;20040;-79
2023/10/19 13:09:32;;;;;;;5.15;1.10;;;18.10;99.90;;;;;;4987225;28;20507;-80
2023/10/19 13:11:59;;;;;;;10.20;1.90;;;18.10;99.90;;;;;;5019008;28;20034;-81
2023/10/19 13:14:27;;;;;;;5.45;1.50;;;18.10;99.90;;;;;;5004466;28;20029;-80
2023/10/19 13:16:54;;;;;;;4.80;1.25;;;18.00;99.90;;;;;;5004928;28;20044;-82
2023/10/19 13:19:26;;;;;;;5.05;1.38;;;18.00;99.90;;;;;;5014478;28;20044;-79
2023/10/19 13:21:54;;;;;;;5.10;1.27;;;17.90;99.90;;;;;;5000831;28;20053;-79
2023/10/19 13:24:20;;;;;;;6.82;1.35;;;17.90;99.90;;;;;;5001993;28;20036;-80
2023/10/19 13:26:50;;;;;;;4.05;1.20;;;17.90;99.90;;;;;;5015157;28;20044;-78
2023/10/19 13:29:17;;;;;;;6.40;1.70;;;17.80;99.90;;;;;;5000114;28;20029;-78